sensor_id;sensor_type;location;lat;lon;timestamp;temperature;humidity
20246;DHT22;10281;54.406;18.556;2022-12-08T00:01:18;2.10;99.90
20246;DHT22;10281;54.406;18.556;2022-12-08T00:03:45;2.10;99.90
20246;DHT22;10281;54.406;18.556;2022-12-08T00:06:25;2.20;99.90
20246;DHT22;10281;54.406;18.556;2022-12-08T00:08:58;2.10;99.90
20246;DHT22;10281;54.406;18.556;2022-12-08T00:11:30;2.10;99.90
20246;DHT22;10281;54.406;18.556;2022-12-08T00:13:57;2.00;99.90
20246;DHT22;10281;54.406;18.556;2022-12-08T00:16:24;2.00;99.90
20246;DHT22;10281;54.406;18.556;2022-12-08T00:18:50;2.00;99.90
20246;DHT22;10281;54.406;18.556;2022-12-08T00:21:17;2.00;99.90
20246;DHT22;10281;54.406;18.556;2022-12-08T00:23:44;1.90;99.90
20246;DHT22;10281;54.406;18.556;2022-12-08T00:26:10;1.90;99.90
20246;DHT22;10281;54.406;18.556;2022-12-08T00:28:37;1.80;99.90
20246;DHT22;10281;54.406;18.556;2022-12-08T00:31:08;1.80;99.90
20246;DHT22;10281;54.406;18.556;2022-12-08T00:33:35;1.80;99.90
20246;DHT22;10281;54.406;18.556;2022-12-08T00:36:08;1.70;99.90
20246;DHT22;10281;54.406;18.556;2022-12-08T00:38:36;1.70;99.90
20246;DHT22;10281;54.406;18.556;2022-12-08T00:41:05;1.70;99.90
20246;DHT22;10281;54.406;18.556;2022-12-08T00:43:31;1.70;99.90
20246;DHT22;10281;54.406;18.556;2022-12-08T00:45:58;1.70;99.90
20246;DHT22;10281;54.406;18.556;2022-12-08T00:48:24;1.60;99.90
20246;DHT22;10281;54.406;18.556;2022-12-08T00:50:52;1.60;99.90
20246;DHT22;10281;54.406;18.556;2022-12-08T00:53:18;1.60;99.90
20246;DHT22;10281;54.406;18.556;2022-12-08T00:55:45;1.60;99.90
20246;DHT22;10281;54.406;18.556;2022-12-08T00:58:11;1.60;99.90
20246;DHT22;10281;54.406;18.556;2022-12-08T01:00:40;1.50;99.90
20246;DHT22;10281;54.406;18.556;2022-12-08T01:03:10;1.50;99.90
20246;DHT22;10281;54.406;18.556;2022-12-08T01:05:37;1.50;99.90
20246;DHT22;10281;54.406;18.556;2022-12-08T01:08:05;1.40;99.90
20246;DHT22;10281;54.406;18.556;2022-12-08T01:10:35;1.50;99.90
20246;DHT22;10281;54.406;18.556;2022-12-08T01:13:01;1.40;99.90
20246;DHT22;10281;54.406;18.556;2022-12-08T01:15:28;1.40;99.90
20246;DHT22;10281;54.406;18.556;2022-12-08T01:17:54;1.40;99.90
20246;DHT22;10281;54.406;18.556;2022-12-08T01:20:21;1.30;99.90
20246;DHT22;10281;54.406;18.556;2022-12-08T01:22:48;1.40;99.90
20246;DHT22;10281;54.406;18.556;2022-12-08T01:25:14;1.30;99.90
20246;DHT22;10281;54.406;18.556;2022-12-08T01:27:41;1.30;99.90
20246;DHT22;10281;54.406;18.556;2022-12-08T01:30:08;1.30;99.90
20246;DHT22;10281;54.406;18.556;2022-12-08T01:32:35;1.30;99.90
20246;DHT22;10281;54.406;18.556;2022-12-08T01:35:02;1.30;99.90
20246;DHT22;10281;54.406;18.556;2022-12-08T01:37:29;1.30;99.90
20246;DHT22;10281;54.406;18.556;2022-12-08T01:39:55;1.30;99.90
20246;DHT22;10281;54.406;18.556;2022-12-08T01:42:23;1.30;99.90
20246;DHT22;10281;54.406;18.556;2022-12-08T01:44:55;1.30;99.90
20246;DHT22;10281;54.406;18.556;2022-12-08T01:47:24;1.40;99.90
20246;DHT22;10281;54.406;18.556;2022-12-08T01:49:51;1.40;99.90
20246;DHT22;10281;54.406;18.556;2022-12-08T01:52:31;1.40;99.90
20246;DHT22;10281;54.406;18.556;2022-12-08T01:55:02;1.40;99.90
20246;DHT22;10281;54.406;18.556;2022-12-08T01:57:46;1.40;99.90
20246;DHT22;10281;54.406;18.556;2022-12-08T02:00:16;1.40;99.90
20246;DHT22;10281;54.406;18.556;2022-12-08T02:02:51;1.40;99.90
20246;DHT22;10281;54.406;18.556;2022-12-08T02:05:19;1.50;99.90
20246;DHT22;10281;54.406;18.556;2022-12-08T02:07:47;1.40;99.90
20246;DHT22;10281;54.406;18.556;2022-12-08T02:10:17;1.50;99.90
20246;DHT22;10281;54.406;18.556;2022-12-08T02:12:44;1.60;99.90
20246;DHT22;10281;54.406;18.556;2022-12-08T02:15:12;1.60;99.90
20246;DHT22;10281;54.406;18.556;2022-12-08T02:17:48;1.70;99.90
20246;DHT22;10281;54.406;18.556;2022-12-08T02:20:36;1.70;99.90
20246;DHT22;10281;54.406;18.556;2022-12-08T02:23:10;1.70;99.90
20246;DHT22;10281;54.406;18.556;2022-12-08T02:25:48;1.70;99.90
20246;DHT22;10281;54.406;18.556;2022-12-08T02:33:58;1.70;99.90
20246;DHT22;10281;54.406;18.556;2022-12-08T02:36:31;1.80;99.90
20246;DHT22;10281;54.406;18.556;2022-12-08T02:39:10;1.80;99.90
20246;DHT22;10281;54.406;18.556;2022-12-08T02:41:50;1.70;99.90
20246;DHT22;10281;54.406;18.556;2022-12-08T02:44:23;1.70;99.90
20246;DHT22;10281;54.406;18.556;2022-12-08T02:46:55;1.70;99.90
20246;DHT22;10281;54.406;18.556;2022-12-08T02:49:28;1.70;99.90
20246;DHT22;10281;54.406;18.556;2022-12-08T02:52:05;1.70;99.90
20246;DHT22;10281;54.406;18.556;2022-12-08T02:54:32;1.70;99.90
20246;DHT22;10281;54.406;18.556;2022-12-08T02:57:44;1.60;99.90
20246;DHT22;10281;54.406;18.556;2022-12-08T02:59:59;1.60;99.90
20246;DHT22;10281;54.406;18.556;2022-12-08T03:02:30;1.60;99.90
20246;DHT22;10281;54.406;18.556;2022-12-08T03:05:04;1.60;99.90
20246;DHT22;10281;54.406;18.556;2022-12-08T03:07:34;1.60;99.90
20246;DHT22;10281;54.406;18.556;2022-12-08T03:10:07;1.70;99.90
20246;DHT22;10281;54.406;18.556;2022-12-08T03:12:38;1.70;99.90
20246;DHT22;10281;54.406;18.556;2022-12-08T03:15:11;1.70;99.90
20246;DHT22;10281;54.406;18.556;2022-12-08T03:17:40;1.60;99.90
20246;DHT22;10281;54.406;18.556;2022-12-08T03:20:12;1.60;99.90
20246;DHT22;10281;54.406;18.556;2022-12-08T03:22:40;1.60;99.90
20246;DHT22;10281;54.406;18.556;2022-12-08T03:25:12;1.60;99.90
20246;DHT22;10281;54.406;18.556;2022-12-08T03:27:40;1.60;99.90
20246;DHT22;10281;54.406;18.556;2022-12-08T03:30:07;1.60;99.90
20246;DHT22;10281;54.406;18.556;2022-12-08T03:32:41;1.60;99.90
20246;DHT22;10281;54.406;18.556;2022-12-08T03:35:14;1.60;99.90
20246;DHT22;10281;54.406;18.556;2022-12-08T03:37:42;1.60;99.90
20246;DHT22;10281;54.406;18.556;2022-12-08T03:40:13;1.60;99.90
20246;DHT22;10281;54.406;18.556;2022-12-08T03:42:40;1.60;99.90
20246;DHT22;10281;54.406;18.556;2022-12-08T03:45:06;1.50;99.90
20246;DHT22;10281;54.406;18.556;2022-12-08T03:47:33;1.50;99.90
20246;DHT22;10281;54.406;18.556;2022-12-08T03:50:00;1.50;99.90
20246;DHT22;10281;54.406;18.556;2022-12-08T03:52:27;1.50;99.90
20246;DHT22;10281;54.406;18.556;2022-12-08T03:54:54;1.50;99.90
20246;DHT22;10281;54.406;18.556;2022-12-08T03:57:20;1.40;99.90
20246;DHT22;10281;54.406;18.556;2022-12-08T03:59:47;1.40;99.90
20246;DHT22;10281;54.406;18.556;2022-12-08T04:02:15;1.40;99.90
20246;DHT22;10281;54.406;18.556;2022-12-08T04:04:42;1.40;99.90
20246;DHT22;10281;54.406;18.556;2022-12-08T04:07:09;1.30;99.90
20246;DHT22;10281;54.406;18.556;2022-12-08T04:09:35;1.30;99.90
20246;DHT22;10281;54.406;18.556;2022-12-08T04:12:03;1.30;99.90
20246;DHT22;10281;54.406;18.556;2022-12-08T04:14:30;1.20;99.90
20246;DHT22;10281;54.406;18.556;2022-12-08T04:16:57;1.30;99.90
20246;DHT22;10281;54.406;18.556;2022-12-08T04:19:24;1.30;99.90
20246;DHT22;10281;54.406;18.556;2022-12-08T04:21:51;1.30;99.90
20246;DHT22;10281;54.406;18.556;2022-12-08T04:24:18;1.30;99.90
20246;DHT22;10281;54.406;18.556;2022-12-08T04:26:45;1.30;99.90
20246;DHT22;10281;54.406;18.556;2022-12-08T04:29:11;1.30;99.90
20246;DHT22;10281;54.406;18.556;2022-12-08T04:31:38;1.30;99.90
20246;DHT22;10281;54.406;18.556;2022-12-08T04:34:04;1.30;99.90
20246;DHT22;10281;54.406;18.556;2022-12-08T04:36:31;1.40;99.90
20246;DHT22;10281;54.406;18.556;2022-12-08T04:38:59;1.40;99.90
20246;DHT22;10281;54.406;18.556;2022-12-08T04:41:26;1.40;99.90
20246;DHT22;10281;54.406;18.556;2022-12-08T04:43:52;1.40;99.90
20246;DHT22;10281;54.406;18.556;2022-12-08T04:46:19;1.40;99.90
20246;DHT22;10281;54.406;18.556;2022-12-08T04:48:46;1.40;99.90
20246;DHT22;10281;54.406;18.556;2022-12-08T04:51:15;1.40;99.90
20246;DHT22;10281;54.406;18.556;2022-12-08T04:53:42;1.40;99.90
20246;DHT22;10281;54.406;18.556;2022-12-08T04:56:11;1.40;99.90
20246;DHT22;10281;54.406;18.556;2022-12-08T04:58:39;1.40;99.90
20246;DHT22;10281;54.406;18.556;2022-12-08T05:01:06;1.40;99.90
20246;DHT22;10281;54.406;18.556;2022-12-08T05:03:33;1.40;99.90
20246;DHT22;10281;54.406;18.556;2022-12-08T05:05:59;1.40;99.90
20246;DHT22;10281;54.406;18.556;2022-12-08T05:08:27;1.40;99.90
20246;DHT22;10281;54.406;18.556;2022-12-08T05:11:00;1.30;99.90
20246;DHT22;10281;54.406;18.556;2022-12-08T05:13:27;1.30;99.90
20246;DHT22;10281;54.406;18.556;2022-12-08T05:15:54;1.30;99.90
20246;DHT22;10281;54.406;18.556;2022-12-08T05:18:22;1.30;99.90
20246;DHT22;10281;54.406;18.556;2022-12-08T05:20:49;1.30;99.90
20246;DHT22;10281;54.406;18.556;2022-12-08T05:23:15;1.40;99.90
20246;DHT22;10281;54.406;18.556;2022-12-08T05:25:42;1.30;99.90
20246;DHT22;10281;54.406;18.556;2022-12-08T05:28:09;1.40;99.90
20246;DHT22;10281;54.406;18.556;2022-12-08T05:30:35;1.40;99.90
20246;DHT22;10281;54.406;18.556;2022-12-08T05:33:02;1.40;99.90
20246;DHT22;10281;54.406;18.556;2022-12-08T05:35:28;1.40;99.90
20246;DHT22;10281;54.406;18.556;2022-12-08T05:37:55;1.40;99.90
20246;DHT22;10281;54.406;18.556;2022-12-08T05:40:21;1.40;99.90
20246;DHT22;10281;54.406;18.556;2022-12-08T05:42:48;1.40;99.90
20246;DHT22;10281;54.406;18.556;2022-12-08T05:45:15;1.30;99.90
20246;DHT22;10281;54.406;18.556;2022-12-08T05:47:41;1.30;99.90
20246;DHT22;10281;54.406;18.556;2022-12-08T05:50:08;1.30;99.90
20246;DHT22;10281;54.406;18.556;2022-12-08T05:52:35;1.30;99.90
20246;DHT22;10281;54.406;18.556;2022-12-08T05:55:02;1.30;99.90
20246;DHT22;10281;54.406;18.556;2022-12-08T05:57:29;1.30;99.90
20246;DHT22;10281;54.406;18.556;2022-12-08T05:59:55;1.30;99.90
20246;DHT22;10281;54.406;18.556;2022-12-08T06:02:25;1.30;99.90
20246;DHT22;10281;54.406;18.556;2022-12-08T06:04:51;1.20;99.90
20246;DHT22;10281;54.406;18.556;2022-12-08T06:07:18;1.30;99.90
20246;DHT22;10281;54.406;18.556;2022-12-08T06:09:44;1.30;99.90
20246;DHT22;10281;54.406;18.556;2022-12-08T06:12:12;1.30;99.90
20246;DHT22;10281;54.406;18.556;2022-12-08T06:14:39;1.40;99.90
20246;DHT22;10281;54.406;18.556;2022-12-08T06:17:06;1.40;99.90
20246;DHT22;10281;54.406;18.556;2022-12-08T06:19:33;1.40;99.90
20246;DHT22;10281;54.406;18.556;2022-12-08T06:21:59;1.40;99.90
20246;DHT22;10281;54.406;18.556;2022-12-08T06:24:26;1.40;99.90
20246;DHT22;10281;54.406;18.556;2022-12-08T06:26:52;1.50;99.90
20246;DHT22;10281;54.406;18.556;2022-12-08T06:29:19;1.50;99.90
20246;DHT22;10281;54.406;18.556;2022-12-08T06:31:46;1.60;99.90
20246;DHT22;10281;54.406;18.556;2022-12-08T06:34:12;1.60;99.90
20246;DHT22;10281;54.406;18.556;2022-12-08T06:36:39;1.60;99.90
20246;DHT22;10281;54.406;18.556;2022-12-08T06:39:06;1.70;99.90
20246;DHT22;10281;54.406;18.556;2022-12-08T06:41:32;1.70;99.90
20246;DHT22;10281;54.406;18.556;2022-12-08T06:44:01;1.70;99.90
20246;DHT22;10281;54.406;18.556;2022-12-08T06:46:27;1.80;99.90
20246;DHT22;10281;54.406;18.556;2022-12-08T06:48:54;1.80;99.90
20246;DHT22;10281;54.406;18.556;2022-12-08T06:51:21;1.90;99.90
20246;DHT22;10281;54.406;18.556;2022-12-08T06:53:48;1.90;99.90
20246;DHT22;10281;54.406;18.556;2022-12-08T06:56:15;2.00;99.90
20246;DHT22;10281;54.406;18.556;2022-12-08T06:58:44;2.00;99.90
20246;DHT22;10281;54.406;18.556;2022-12-08T07:01:12;2.00;99.90
20246;DHT22;10281;54.406;18.556;2022-12-08T07:03:40;2.00;99.90
20246;DHT22;10281;54.406;18.556;2022-12-08T07:06:13;2.00;99.90
20246;DHT22;10281;54.406;18.556;2022-12-08T07:08:40;2.10;99.90
20246;DHT22;10281;54.406;18.556;2022-12-08T07:11:08;2.00;99.90
20246;DHT22;10281;54.406;18.556;2022-12-08T07:13:35;2.00;99.90
20246;DHT22;10281;54.406;18.556;2022-12-08T07:16:04;2.00;99.90
20246;DHT22;10281;54.406;18.556;2022-12-08T07:18:31;1.90;99.90
20246;DHT22;10281;54.406;18.556;2022-12-08T07:21:03;1.90;99.90
20246;DHT22;10281;54.406;18.556;2022-12-08T07:23:29;1.80;99.90
20246;DHT22;10281;54.406;18.556;2022-12-08T07:25:59;1.70;99.90
20246;DHT22;10281;54.406;18.556;2022-12-08T07:28:30;1.70;99.90
20246;DHT22;10281;54.406;18.556;2022-12-08T07:30:56;1.70;99.90
20246;DHT22;10281;54.406;18.556;2022-12-08T07:33:23;1.60;99.90
20246;DHT22;10281;54.406;18.556;2022-12-08T07:35:55;1.60;99.90
20246;DHT22;10281;54.406;18.556;2022-12-08T07:38:23;1.70;99.90
20246;DHT22;10281;54.406;18.556;2022-12-08T07:40:51;1.70;99.90
20246;DHT22;10281;54.406;18.556;2022-12-08T07:43:18;1.60;99.90
20246;DHT22;10281;54.406;18.556;2022-12-08T07:45:45;1.60;99.90
20246;DHT22;10281;54.406;18.556;2022-12-08T07:48:12;1.60;99.90
20246;DHT22;10281;54.406;18.556;2022-12-08T07:50:39;1.60;99.90
20246;DHT22;10281;54.406;18.556;2022-12-08T07:53:06;1.60;99.90
20246;DHT22;10281;54.406;18.556;2022-12-08T07:55:32;1.60;99.90
20246;DHT22;10281;54.406;18.556;2022-12-08T07:57:59;1.70;99.90
20246;DHT22;10281;54.406;18.556;2022-12-08T08:00:26;1.60;99.90
20246;DHT22;10281;54.406;18.556;2022-12-08T08:02:56;1.60;99.90
20246;DHT22;10281;54.406;18.556;2022-12-08T08:05:28;1.60;99.90
20246;DHT22;10281;54.406;18.556;2022-12-08T08:08:01;1.70;99.90
20246;DHT22;10281;54.406;18.556;2022-12-08T08:10:34;1.60;99.90
20246;DHT22;10281;54.406;18.556;2022-12-08T08:13:04;1.60;99.90
20246;DHT22;10281;54.406;18.556;2022-12-08T08:15:36;1.60;99.90
20246;DHT22;10281;54.406;18.556;2022-12-08T08:18:09;1.60;99.90
20246;DHT22;10281;54.406;18.556;2022-12-08T08:20:39;1.60;99.90
20246;DHT22;10281;54.406;18.556;2022-12-08T08:23:11;1.70;99.90
20246;DHT22;10281;54.406;18.556;2022-12-08T08:25:41;1.70;99.90
20246;DHT22;10281;54.406;18.556;2022-12-08T08:28:11;1.60;99.90
20246;DHT22;10281;54.406;18.556;2022-12-08T08:30:44;1.70;99.90
20246;DHT22;10281;54.406;18.556;2022-12-08T08:33:17;1.70;99.90
20246;DHT22;10281;54.406;18.556;2022-12-08T08:35:50;1.80;99.90
20246;DHT22;10281;54.406;18.556;2022-12-08T08:38:23;1.80;99.90
20246;DHT22;10281;54.406;18.556;2022-12-08T08:40:57;1.80;99.90
20246;DHT22;10281;54.406;18.556;2022-12-08T08:43:29;1.80;99.90
20246;DHT22;10281;54.406;18.556;2022-12-08T08:46:03;1.80;99.90
20246;DHT22;10281;54.406;18.556;2022-12-08T08:48:36;1.80;99.90
20246;DHT22;10281;54.406;18.556;2022-12-08T08:51:08;1.80;99.90
20246;DHT22;10281;54.406;18.556;2022-12-08T08:53:41;1.80;99.90
20246;DHT22;10281;54.406;18.556;2022-12-08T08:56:14;1.80;99.90
20246;DHT22;10281;54.406;18.556;2022-12-08T08:58:47;1.80;99.90
20246;DHT22;10281;54.406;18.556;2022-12-08T09:01:17;1.80;99.90
20246;DHT22;10281;54.406;18.556;2022-12-08T09:03:45;1.80;99.90
20246;DHT22;10281;54.406;18.556;2022-12-08T09:06:12;1.80;99.90
20246;DHT22;10281;54.406;18.556;2022-12-08T09:08:40;1.80;99.90
20246;DHT22;10281;54.406;18.556;2022-12-08T09:11:11;1.80;99.90
20246;DHT22;10281;54.406;18.556;2022-12-08T09:13:38;1.80;99.90
20246;DHT22;10281;54.406;18.556;2022-12-08T09:16:06;1.80;99.90
20246;DHT22;10281;54.406;18.556;2022-12-08T09:18:33;1.70;99.90
20246;DHT22;10281;54.406;18.556;2022-12-08T09:21:04;1.80;99.90
20246;DHT22;10281;54.406;18.556;2022-12-08T09:23:37;1.80;99.90
20246;DHT22;10281;54.406;18.556;2022-12-08T09:26:09;1.80;99.90
20246;DHT22;10281;54.406;18.556;2022-12-08T09:28:42;1.90;99.90
20246;DHT22;10281;54.406;18.556;2022-12-08T09:31:17;2.00;99.90
20246;DHT22;10281;54.406;18.556;2022-12-08T09:33:50;2.10;99.90
20246;DHT22;10281;54.406;18.556;2022-12-08T09:36:20;2.00;99.90
20246;DHT22;10281;54.406;18.556;2022-12-08T09:38:53;2.00;99.90
20246;DHT22;10281;54.406;18.556;2022-12-08T09:41:32;2.00;99.90
20246;DHT22;10281;54.406;18.556;2022-12-08T09:46:54;2.10;99.90
20246;DHT22;10281;54.406;18.556;2022-12-08T09:49:29;2.00;99.90
20246;DHT22;10281;54.406;18.556;2022-12-08T09:52:00;2.00;99.90
20246;DHT22;10281;54.406;18.556;2022-12-08T09:54:32;2.00;99.90
20246;DHT22;10281;54.406;18.556;2022-12-08T09:57:02;2.10;99.90
20246;DHT22;10281;54.406;18.556;2022-12-08T09:59:32;2.10;99.90
20246;DHT22;10281;54.406;18.556;2022-12-08T10:02:12;2.10;99.90
20246;DHT22;10281;54.406;18.556;2022-12-08T10:04:37;2.10;99.90
20246;DHT22;10281;54.406;18.556;2022-12-08T10:10:47;2.00;99.90
20246;DHT22;10281;54.406;18.556;2022-12-08T10:12:33;2.00;99.90
20246;DHT22;10281;54.406;18.556;2022-12-08T10:17:46;2.20;99.90
20246;DHT22;10281;54.406;18.556;2022-12-08T10:20:18;2.20;99.90
20246;DHT22;10281;54.406;18.556;2022-12-08T10:22:48;2.20;99.90
20246;DHT22;10281;54.406;18.556;2022-12-08T10:25:19;2.20;99.90
20246;DHT22;10281;54.406;18.556;2022-12-08T10:27:50;2.20;99.90
20246;DHT22;10281;54.406;18.556;2022-12-08T10:30:20;2.30;99.90
20246;DHT22;10281;54.406;18.556;2022-12-08T10:32:49;2.30;99.90
20246;DHT22;10281;54.406;18.556;2022-12-08T10:35:17;2.40;99.90
20246;DHT22;10281;54.406;18.556;2022-12-08T10:37:54;2.40;99.90
20246;DHT22;10281;54.406;18.556;2022-12-08T10:40:22;2.40;99.90
20246;DHT22;10281;54.406;18.556;2022-12-08T10:42:53;2.40;99.90
20246;DHT22;10281;54.406;18.556;2022-12-08T10:45:25;2.50;99.90
20246;DHT22;10281;54.406;18.556;2022-12-08T10:48:02;2.50;99.90
20246;DHT22;10281;54.406;18.556;2022-12-08T10:50:35;2.50;99.90
20246;DHT22;10281;54.406;18.556;2022-12-08T10:53:22;2.50;99.90
20246;DHT22;10281;54.406;18.556;2022-12-08T10:55:47;2.60;99.90
20246;DHT22;10281;54.406;18.556;2022-12-08T10:58:24;2.60;99.90
20246;DHT22;10281;54.406;18.556;2022-12-08T11:00:55;2.60;99.90
20246;DHT22;10281;54.406;18.556;2022-12-08T11:03:25;2.50;99.90
20246;DHT22;10281;54.406;18.556;2022-12-08T11:05:55;2.50;99.90
20246;DHT22;10281;54.406;18.556;2022-12-08T11:08:24;2.60;99.90
20246;DHT22;10281;54.406;18.556;2022-12-08T11:10:57;2.70;99.90
20246;DHT22;10281;54.406;18.556;2022-12-08T11:13:25;2.70;99.90
20246;DHT22;10281;54.406;18.556;2022-12-08T11:15:55;2.80;99.90
20246;DHT22;10281;54.406;18.556;2022-12-08T11:18:28;2.80;99.90
20246;DHT22;10281;54.406;18.556;2022-12-08T11:20:59;2.80;99.90
20246;DHT22;10281;54.406;18.556;2022-12-08T11:23:27;2.90;99.90
20246;DHT22;10281;54.406;18.556;2022-12-08T11:25:57;2.90;99.90
20246;DHT22;10281;54.406;18.556;2022-12-08T11:28:25;2.90;99.90
20246;DHT22;10281;54.406;18.556;2022-12-08T11:30:58;3.00;99.90
20246;DHT22;10281;54.406;18.556;2022-12-08T11:33:31;3.00;99.90
20246;DHT22;10281;54.406;18.556;2022-12-08T11:36:06;3.10;99.90
20246;DHT22;10281;54.406;18.556;2022-12-08T11:38:40;3.10;99.90
20246;DHT22;10281;54.406;18.556;2022-12-08T11:41:18;3.20;99.90
20246;DHT22;10281;54.406;18.556;2022-12-08T11:43:54;3.20;99.90
20246;DHT22;10281;54.406;18.556;2022-12-08T11:46:31;3.20;99.90
20246;DHT22;10281;54.406;18.556;2022-12-08T11:49:05;3.10;99.90
20246;DHT22;10281;54.406;18.556;2022-12-08T11:51:39;3.10;99.90
20246;DHT22;10281;54.406;18.556;2022-12-08T11:56:53;3.10;99.90
20246;DHT22;10281;54.406;18.556;2022-12-08T12:02:04;3.20;99.90
20246;DHT22;10281;54.406;18.556;2022-12-08T12:04:38;3.20;99.90
20246;DHT22;10281;54.406;18.556;2022-12-08T12:18:31;3.20;99.90
20246;DHT22;10281;54.406;18.556;2022-12-08T12:21:15;3.20;99.90
20246;DHT22;10281;54.406;18.556;2022-12-08T12:23:52;3.20;99.90
20246;DHT22;10281;54.406;18.556;2022-12-08T12:26:27;3.20;99.90
20246;DHT22;10281;54.406;18.556;2022-12-08T12:29:02;3.10;99.90
20246;DHT22;10281;54.406;18.556;2022-12-08T12:31:37;3.20;99.90
20246;DHT22;10281;54.406;18.556;2022-12-08T12:34:14;3.10;99.90
20246;DHT22;10281;54.406;18.556;2022-12-08T12:36:49;3.20;99.90
20246;DHT22;10281;54.406;18.556;2022-12-08T12:39:25;3.10;99.90
20246;DHT22;10281;54.406;18.556;2022-12-08T12:41:59;3.00;99.90
20246;DHT22;10281;54.406;18.556;2022-12-08T12:44:35;3.00;99.90
20246;DHT22;10281;54.406;18.556;2022-12-08T12:47:10;2.90;99.90
20246;DHT22;10281;54.406;18.556;2022-12-08T12:49:50;2.90;99.90
20246;DHT22;10281;54.406;18.556;2022-12-08T12:57:51;2.80;99.90
20246;DHT22;10281;54.406;18.556;2022-12-08T13:00:24;2.80;99.90
20246;DHT22;10281;54.406;18.556;2022-12-08T13:02:56;2.70;99.90
20246;DHT22;10281;54.406;18.556;2022-12-08T13:05:30;2.70;99.90
20246;DHT22;10281;54.406;18.556;2022-12-08T13:08:05;2.70;99.90
20246;DHT22;10281;54.406;18.556;2022-12-08T13:10:39;2.70;99.90
20246;DHT22;10281;54.406;18.556;2022-12-08T13:13:15;2.60;99.90
20246;DHT22;10281;54.406;18.556;2022-12-08T13:15:50;2.50;99.90
20246;DHT22;10281;54.406;18.556;2022-12-08T13:18:34;2.50;99.90
20246;DHT22;10281;54.406;18.556;2022-12-08T13:23:48;2.50;99.90
20246;DHT22;10281;54.406;18.556;2022-12-08T13:26:22;2.50;99.90
20246;DHT22;10281;54.406;18.556;2022-12-08T13:29:19;2.60;99.90
20246;DHT22;10281;54.406;18.556;2022-12-08T13:31:56;2.60;99.90
20246;DHT22;10281;54.406;18.556;2022-12-08T13:34:36;2.50;99.90
20246;DHT22;10281;54.406;18.556;2022-12-08T13:39:50;2.60;99.90
20246;DHT22;10281;54.406;18.556;2022-12-08T13:42:28;2.60;99.90
20246;DHT22;10281;54.406;18.556;2022-12-08T13:44:56;2.60;99.90
20246;DHT22;10281;54.406;18.556;2022-12-08T13:47:33;2.50;99.90
20246;DHT22;10281;54.406;18.556;2022-12-08T13:52:50;2.50;99.90
20246;DHT22;10281;54.406;18.556;2022-12-08T13:55:27;2.50;99.90
20246;DHT22;10281;54.406;18.556;2022-12-08T13:57:57;2.50;99.90
20246;DHT22;10281;54.406;18.556;2022-12-08T14:00:30;2.50;99.90
20246;DHT22;10281;54.406;18.556;2022-12-08T14:03:03;2.50;99.90
20246;DHT22;10281;54.406;18.556;2022-12-08T14:05:39;2.50;99.90
20246;DHT22;10281;54.406;18.556;2022-12-08T14:08:17;2.50;99.90
20246;DHT22;10281;54.406;18.556;2022-12-08T14:10:52;2.50;99.90
20246;DHT22;10281;54.406;18.556;2022-12-08T14:13:17;2.50;99.90
20246;DHT22;10281;54.406;18.556;2022-12-08T14:15:50;2.50;99.90
20246;DHT22;10281;54.406;18.556;2022-12-08T14:18:24;2.40;99.90
20246;DHT22;10281;54.406;18.556;2022-12-08T14:20:58;2.40;99.90
20246;DHT22;10281;54.406;18.556;2022-12-08T14:23:25;2.40;99.90
20246;DHT22;10281;54.406;18.556;2022-12-08T14:25:53;2.30;99.90
20246;DHT22;10281;54.406;18.556;2022-12-08T14:28:20;2.30;99.90
20246;DHT22;10281;54.406;18.556;2022-12-08T14:30:47;2.30;99.90
20246;DHT22;10281;54.406;18.556;2022-12-08T14:33:15;2.40;99.90
20246;DHT22;10281;54.406;18.556;2022-12-08T14:35:48;2.40;99.90
20246;DHT22;10281;54.406;18.556;2022-12-08T14:38:15;2.40;99.90
20246;DHT22;10281;54.406;18.556;2022-12-08T14:40:44;2.40;99.90
20246;DHT22;10281;54.406;18.556;2022-12-08T14:43:17;2.40;99.90
20246;DHT22;10281;54.406;18.556;2022-12-08T14:45:49;2.40;99.90
20246;DHT22;10281;54.406;18.556;2022-12-08T14:48:41;2.40;99.90
20246;DHT22;10281;54.406;18.556;2022-12-08T14:54:08;2.30;99.90
20246;DHT22;10281;54.406;18.556;2022-12-08T14:56:39;2.30;99.90
20246;DHT22;10281;54.406;18.556;2022-12-08T14:59:24;2.30;99.90
20246;DHT22;10281;54.406;18.556;2022-12-08T15:02:08;2.30;99.90
20246;DHT22;10281;54.406;18.556;2022-12-08T15:04:26;2.30;99.90
20246;DHT22;10281;54.406;18.556;2022-12-08T15:07:04;2.30;99.90
20246;DHT22;10281;54.406;18.556;2022-12-08T15:09:37;2.30;99.90
20246;DHT22;10281;54.406;18.556;2022-12-08T15:12:14;2.20;99.90
20246;DHT22;10281;54.406;18.556;2022-12-08T15:14:38;2.30;99.90
20246;DHT22;10281;54.406;18.556;2022-12-08T15:19:39;2.30;99.90
20246;DHT22;10281;54.406;18.556;2022-12-08T15:22:16;2.30;99.90
20246;DHT22;10281;54.406;18.556;2022-12-08T15:24:43;2.30;99.90
20246;DHT22;10281;54.406;18.556;2022-12-08T15:27:20;2.30;99.90
20246;DHT22;10281;54.406;18.556;2022-12-08T15:29:48;2.30;99.90
20246;DHT22;10281;54.406;18.556;2022-12-08T15:32:20;2.30;99.90
20246;DHT22;10281;54.406;18.556;2022-12-08T15:34:48;2.30;99.90
20246;DHT22;10281;54.406;18.556;2022-12-08T15:37:20;2.30;99.90
20246;DHT22;10281;54.406;18.556;2022-12-08T15:39:47;2.20;99.90
20246;DHT22;10281;54.406;18.556;2022-12-08T15:42:15;2.30;99.90
20246;DHT22;10281;54.406;18.556;2022-12-08T15:44:42;2.20;99.90
20246;DHT22;10281;54.406;18.556;2022-12-08T15:47:15;2.10;99.90
20246;DHT22;10281;54.406;18.556;2022-12-08T15:49:43;2.00;99.90
20246;DHT22;10281;54.406;18.556;2022-12-08T15:52:15;2.10;99.90
20246;DHT22;10281;54.406;18.556;2022-12-08T15:54:42;2.10;99.90
20246;DHT22;10281;54.406;18.556;2022-12-08T15:57:18;2.20;99.90
20246;DHT22;10281;54.406;18.556;2022-12-08T15:59:46;2.20;99.90
20246;DHT22;10281;54.406;18.556;2022-12-08T16:02:13;2.20;99.90
20246;DHT22;10281;54.406;18.556;2022-12-08T16:04:40;2.20;99.90
20246;DHT22;10281;54.406;18.556;2022-12-08T16:07:14;2.20;99.90
20246;DHT22;10281;54.406;18.556;2022-12-08T16:09:40;2.20;99.90
20246;DHT22;10281;54.406;18.556;2022-12-08T16:12:25;2.20;99.90
20246;DHT22;10281;54.406;18.556;2022-12-08T16:14:58;2.20;99.90
20246;DHT22;10281;54.406;18.556;2022-12-08T16:17:25;2.30;99.90
20246;DHT22;10281;54.406;18.556;2022-12-08T16:19:52;2.20;99.90
20246;DHT22;10281;54.406;18.556;2022-12-08T16:22:22;2.20;99.90
20246;DHT22;10281;54.406;18.556;2022-12-08T16:24:50;2.20;99.90
20246;DHT22;10281;54.406;18.556;2022-12-08T16:27:26;2.20;99.90
20246;DHT22;10281;54.406;18.556;2022-12-08T16:29:54;2.20;99.90
20246;DHT22;10281;54.406;18.556;2022-12-08T16:32:22;2.20;99.90
20246;DHT22;10281;54.406;18.556;2022-12-08T16:34:49;2.20;99.90
20246;DHT22;10281;54.406;18.556;2022-12-08T16:37:18;2.20;99.90
20246;DHT22;10281;54.406;18.556;2022-12-08T16:39:45;2.20;99.90